SPECI KBUY 200006Z AUTO 00000KT 3SM BR FEW004 BKN008 OVC060 01/01 A3013 RMK AO2 
METAR KBUY 192354Z AUTO 00000KT 3SM BR FEW002 BKN060 OVC095 01/01 A3012 RMK AO2 SLP204 60016 T00060006 10006 20006 55008 
SPECI KBUY 192343Z AUTO 00000KT 3SM BR SCT002 BKN060 OVC100 01/01 A3013 RMK AO2 
SPECI KBUY 192323Z AUTO 00000KT 3SM BR BKN002 OVC095 01/01 A3012 RMK AO2 
METAR KBUY 192254Z AUTO 00000KT 2 1/2SM BR BKN002 OVC090 01/01 A3011 RMK AO2 SNE39 SLP199 P0001 T00060006 
SPECI KBUY 192237Z AUTO 00000KT 1SM -SN BR BKN002 BKN006 OVC016 01/01 A3011 RMK AO2 P0001 
SPECI KBUY 192226Z AUTO 00000KT 1 1/4SM -SN BR SCT002 BKN006 OVC016 01/01 A3011 RMK AO2 P0001 
SPECI KBUY 192207Z AUTO 00000KT 1/2SM SN FG SCT002 OVC016 01/01 A3012 RMK AO2 P0001 
METAR KBUY 192154Z AUTO 00000KT 1/4SM SN FG SCT004 OVC016 01/01 A3011 RMK AO2 SLP198 P0005 T00060006 
SPECI KBUY 192138Z AUTO 00000KT 1/2SM SN FG SCT006 OVC016 01/01 A3014 RMK AO2 P0004 
SPECI KBUY 192113Z AUTO 00000KT 1/4SM +SN FG OVC006 01/01 A3013 RMK AO2 P0002 
METAR KBUY 192054Z AUTO 00000KT 1SM -SN BR OVC006 01/01 A3015 RMK AO2 SLP212 P0002 60010 T00060006 56006 
METAR KBUY 192054Z AUTO 00000KT 1SM -SN BR OVC006 01/01 A3015 RMK AO2 SLP212 P0002 60010 T00060006 56006 
SPECI KBUY 192040Z AUTO 00000KT 3/4SM -SN BR OVC004 01/01 A3014 RMK AO2 P0002 
SPECI KBUY 192033Z AUTO 00000KT 1/2SM SN FG VV005 01/01 A3015 RMK AO2 PRESRR P0002 
SPECI KBUY 192018Z AUTO 00000KT 1/4SM SN FG VV003 01/01 A3012 RMK AO2 P0001 
SPECI KBUY 192003Z AUTO 00000KT 1/2SM SN FG BKN003 OVC015 01/01 A3014 RMK AO2 P0000 
METAR KBUY 191954Z AUTO 00000KT 1/2SM SN FG SCT003 OVC015 01/01 A3016 RMK AO2 SLP216 P0003 T00060006 
SPECI KBUY 191929Z AUTO 00000KT 3/4SM -SN BR FEW005 OVC015 01/01 A3015 RMK AO2 P0002 
SPECI KBUY 191913Z AUTO 00000KT 1/2SM SN FG BKN005 OVC015 01/01 A3015 RMK AO2 P0001 
METAR KBUY 191854Z AUTO 00000KT 1/2SM SN FG BKN003 OVC015 01/01 A3014 RMK AO2 SLP211 P0005 T00060006 
SPECI KBUY 191843Z AUTO 00000KT 1/2SM -SN FG BKN003 OVC015 01/01 A3015 RMK AO2 P0004 
METAR KBUY 191754Z AUTO 00000KT 1/4SM +SN FG OVC001 01/01 A3017 RMK AO2 SLP218 P0006 60012 T00060006 10050 20006 58019 
SPECI KBUY 191743Z AUTO 00000KT 1/4SM SN FG OVC003 01/01 A3018 RMK AO2 P0005 
METAR KBUY 191654Z AUTO 00000KT 1/2SM SN FG BKN003 OVC015 01/01 A3021 RMK AO2 SLP232 P0005 T00060006 
SPECI KBUY 191646Z AUTO 00000KT 1/2SM SN FG BKN005 OVC015 01/01 A3021 RMK AO2 P0004 
SPECI KBUY 191639Z AUTO 00000KT 1/2SM SN FG SCT005 OVC017 01/01 A3021 RMK AO2 P0003 
SPECI KBUY 191634Z AUTO 16003KT 3/4SM -SN BR FEW003 BKN008 OVC017 01/01 A3022 RMK AO2 P0002 
SPECI KBUY 191630Z AUTO 15003KT 1SM -SN BR FEW003 BKN009 OVC017 01/01 A3021 RMK AO2 P0002 
SPECI KBUY 191627Z AUTO 13004KT 1 1/4SM -SN BR SCT011 OVC017 01/01 A3021 RMK AO2 P0002 
SPECI KBUY 191620Z AUTO 11004KT 2SM -SN BR SCT011 OVC017 01/01 A3020 RMK AO2 PRESFR P0001 
SPECI KBUY 191608Z AUTO 16004KT 3SM -SN BR SCT009 OVC017 02/01 A3024 RMK AO2 P0001 
METAR KBUY 191554Z AUTO 09004KT 5SM -SN BR FEW011 OVC017 03/01 A3023 RMK AO2 RAE38SNB38 SLP239 P0001 T00280011 
SPECI KBUY 191532Z AUTO 04006KT 8SM -RA BKN017 BKN030 03/00 A3022 RMK AO2 P0000 
METAR KBUY 191454Z AUTO 10006KT 10SM -RA FEW017 SCT026 BKN034 04/00 A3022 RMK AO2 RAB19 SLP238 P0000 60000 T00390000 53012 
SPECI KBUY 191439Z AUTO VRB04KT 9SM -RA SCT017 OVC028 04/M01 A3021 RMK AO2 RAB19 P0000 
METAR KBUY 191354Z AUTO 00000KT 7SM OVC038 04/01 A3019 RMK AO2 SLP225 T00440011 
METAR KBUY 191254Z AUTO 00000KT 7SM BKN065 BKN075 04/00 A3016 RMK AO2 SLP216 T00390000 
METAR KBUY 191154Z AUTO 00000KT 10SM OVC065 03/01 A3019 RMK AO2 SLP224 T00330006 10039 20033 53006 
METAR KBUY 191054Z AUTO 00000KT 10SM SCT070 03/00 A3016 RMK AO2 SLP214 T00330000 
METAR KBUY 190954Z AUTO 00000KT 10SM SCT080 04/M01 A3017 RMK AO2 SLP218 T00391006 
METAR KBUY 190854Z AUTO 28004KT 10SM FEW095 04/M01 A3017 RMK AO2 SLP218 T00391011 56004 
METAR KBUY 190754Z AUTO 29004KT 9SM CLR 03/M01 A3019 RMK AO2 SLP224 T00331011 
METAR KBUY 190654Z AUTO 20003KT 10SM CLR 03/M02 A3016 RMK AO2 SLP215 T00331022 
METAR KBUY 190554Z AUTO 22004KT 10SM CLR 03/M02 A3018 RMK AO2 SLP222 T00331017 10050 20033 53006 
METAR KBUY 190454Z AUTO 00000KT 9SM CLR 04/M02 A3014 RMK AO2 SLP210 T00391022 400561033 
METAR KBUY 190354Z AUTO 00000KT 10SM CLR 04/M03 A3014 RMK AO2 SLP209 T00391028 
METAR KBUY 190254Z AUTO 24005KT 10SM CLR 04/M03 A3016 RMK AO2 SLP216 T00391028 56009 
METAR KBUY 190154Z AUTO 26007KT 10SM SCT085 04/M04 A3018 RMK AO2 SLP222 T00441039 
METAR KBUY 190054Z AUTO 24005KT 10SM FEW090 04/M03 A3017 RMK AO2 SLP219 T00441033 
METAR KBUY 182354Z AUTO 25006KT 10SM FEW110 05/M04 A3019 RMK AO2 SLP227 T00501039 10056 20044 53003 
METAR KBUY 182254Z AUTO 22003KT 10SM CLR 05/M04 A3016 RMK AO2 SLP217 T00501044 
METAR KBUY 182154Z AUTO 24005KT 10SM CLR 05/M05 A3016 RMK AO2 PRESFR SLP218 T00501050 
METAR KBUY 182054Z AUTO 22003KT 10SM CLR 06/M05 A3018 RMK AO2 SLP223 T00561050 56013 
METAR KBUY 181954Z AUTO 21007KT 10SM CLR 06/M06 A3019 RMK AO2 SLP226 T00561056 
METAR KBUY 181854Z AUTO 20006KT 10SM CLR 05/M06 A3020 RMK AO2 SLP228 T00501061 
METAR KBUY 181754Z AUTO 18004KT 10SM CLR 05/M06 A3022 RMK AO2 SLP236 T00501056 10050 21033 58026 
METAR KBUY 181654Z AUTO VRB03KT 10SM CLR 04/M06 A3025 RMK AO2 SLP247 T00441061 
METAR KBUY 181554Z AUTO VRB03KT 10SM CLR 03/M06 A3028 RMK AO2 SLP257 T00331061 
METAR KBUY 181554Z AUTO VRB03KT 10SM CLR 03/M06 A3028 RMK AO2 SLP257 T00331061 
METAR KBUY 181454Z AUTO 01005KT 10SM CLR 03/M06 A3030 RMK AO2 SLP262 T00281061 51014 
METAR KBUY 181354Z AUTO 01004KT 10SM CLR 02/M06 A3029 RMK AO2 SLP258 T00221056 
METAR KBUY 181254Z AUTO 00000KT 10SM CLR M01/M04 A3027 RMK AO2 SLP253 T10111039 
METAR KBUY 181154Z AUTO 00000KT 10SM CLR M02/M06 A3025 RMK AO2 SLP248 T10171061 10017 21028 53014 
METAR KBUY 181054Z AUTO 01005KT 10SM CLR M01/M07 A3023 RMK AO2 SLP240 T10061067 
METAR KBUY 180954Z AUTO 01004KT 10SM CLR M01/M06 A3022 RMK AO2 SLP236 T10111061 
METAR KBUY 180854Z AUTO 00000KT 10SM CLR M01/M05 A3021 RMK AO2 SLP232 T10111050 51013 
METAR KBUY 180754Z AUTO 01003KT 10SM CLR M02/M06 A3021 RMK AO2 SLP231 T10171056 
METAR KBUY 180654Z AUTO 00000KT 10SM CLR 01/M07 A3019 RMK AO2 SLP225 T00061067 
METAR KBUY 180554Z AUTO VRB04KT 10SM CLR 02/M07 A3018 RMK AO2 SLP219 T00171067 10094 20017 53023 
METAR KBUY 180454Z AUTO 36008KT 10SM CLR 03/M06 A3015 RMK AO2 SLP209 T00281061 401390028 
METAR KBUY 180354Z AUTO 36010KT 10SM CLR 04/M07 A3013 RMK AO2 SLP202 T00441067 
METAR KBUY 180254Z AUTO 35006KT 10SM CLR 06/M06 A3011 RMK AO2 SLP196 T00561061 53037 
METAR KBUY 180154Z AUTO 34010KT 10SM CLR 07/M06 A3007 RMK AO2 SLP185 T00721061 
METAR KBUY 180054Z AUTO 30009KT 10SM CLR 08/M04 A3003 RMK AO2 SLP168 T00831039 
METAR KBUY 172354Z AUTO 27006KT 10SM CLR 09/M03 A2999 RMK AO2 SLP157 T00941028 10133 20094 53031 
METAR KBUY 172254Z AUTO 32007KT 10SM CLR 10/M02 A2995 RMK AO2 SLP143 T01001022 
METAR KBUY 172154Z AUTO 28011KT 10SM CLR 12/M01 A2992 RMK AO2 SLP133 T01171006 
METAR KBUY 172054Z AUTO 29010KT 10SM CLR 13/01 A2990 RMK AO2 SLP124 T01280006 53011 
METAR KBUY 171954Z AUTO 29009KT 10SM CLR 13/02 A2988 RMK AO2 SLP118 T01280022 
METAR KBUY 171854Z AUTO 29011G15KT 10SM CLR 13/03 A2986 RMK AO2 SLP112 T01280028 
METAR KBUY 171754Z AUTO 29008KT 10SM CLR 13/04 A2987 RMK AO2 SLP112 T01280044 10139 20072 58011 
METAR KBUY 171654Z AUTO 32010KT 10SM CLR 13/05 A2988 RMK AO2 SLP117 T01330050 
METAR KBUY 171554Z AUTO 32009KT 10SM CLR 12/06 A2989 RMK AO2 SLP122 T01220061 
METAR KBUY 171454Z AUTO 27006KT 9SM SCT060 OVC090 10/08 A2990 RMK AO2 SLP124 T01000083 50008 
METAR KBUY 171354Z AUTO 25005KT 5SM BR FEW006 OVC085 08/08 A2990 RMK AO2 SLP126 T00830078 
SPECI KBUY 171315Z AUTO 24006KT 4SM BR SCT006 BKN045 OVC080 08/08 A2989 RMK AO2 
METAR KBUY 171254Z AUTO 24006KT 3SM BR BKN006 OVC045 08/07 A2989 RMK AO2 CIG 005V009 SLP123 T00780072 
SPECI KBUY 171239Z AUTO 23006KT 4SM BR BKN006 OVC045 08/07 A2989 RMK AO2 
METAR KBUY 171154Z AUTO 24005KT 5SM BR SCT008 OVC047 07/07 A2987 RMK AO2 SLP117 60005 70007 T00720072 10083 20072 50006 
METAR KBUY 171054Z AUTO 26006KT 7SM BKN008 OVC042 07/07 A2988 RMK AO2 RAE15B37E47 CIG 005V011 SLP118 P0001 T00720072 
METAR KBUY 170954Z AUTO 25007KT 5SM -RA BR OVC008 07/07 A2987 RMK AO2 RAB0856 SLP115 P0002 T00720072 
SPECI KBUY 170919Z AUTO 23005KT 6SM -RA BR BKN008 BKN042 OVC060 07/07 A2987 RMK AO2 RAB0856 P0001 
SPECI KBUY 170907Z AUTO 24008KT 7SM -RA SCT008 BKN042 OVC060 07/07 A2986 RMK AO2 RAB0856 P0001 
METAR KBUY 170854Z AUTO 22006KT 6SM BR FEW010 SCT042 OVC060 07/07 A2985 RMK AO2 RAE54 SLP109 P0001 60002 T00720067 58004 
SPECI KBUY 170826Z AUTO 22005KT 5SM BR FEW010 BKN030 OVC041 07/07 A2985 RMK AO2 RAE24 P0001 
SPECI KBUY 170813Z AUTO 23006KT 4SM -RA BR SCT015 BKN028 OVC041 08/07 A2986 RMK AO2 P0001 
SPECI KBUY 170806Z AUTO 23007KT 5SM -RA BR SCT018 BKN030 OVC041 08/07 A2986 RMK AO2 P0001